Time;durP1;ratioP1;P1;durP2;ratioP2;P2;SDS_P1;SDS_P2;PMS_P1;PMS_P2;Temp;Humidity;BMP_temperature;BMP_pressure;BME280_temperature;BME280_humidity;BME280_pressure;Samples;Min_cycle;Max_cycle;Signal;HPM_P1;HPM_P2
2022/11/14 00:01:16;;;;;;;8.30;7.30;;;;;;;10.70;52.32;101475.75;5068115;28;20568;-75
2022/11/14 00:04:01;;;;;;;8.82;7.18;;;;;;;10.67;52.53;101478.63;5070683;28;20130;-76
2022/11/14 00:06:47;;;;;;;9.93;7.80;;;;;;;10.66;52.32;101476.91;5055172;28;20146;-75
2022/11/14 00:09:32;;;;;;;8.13;7.15;;;;;;;10.65;52.41;101471.63;5047651;28;20122;-76
2022/11/14 00:12:17;;;;;;;13.05;7.80;;;;;;;10.62;52.43;101467.31;5050523;28;20071;-76
2022/11/14 00:15:07;;;;;;;10.48;8.32;;;;;;;10.59;52.33;101470.19;5050630;28;20083;-76
2022/11/14 00:17:52;;;;;;;10.40;7.57;;;;;;;10.58;52.38;101463.09;5035238;28;20115;-76
2022/11/14 00:20:37;;;;;;;8.82;7.28;;;;;;;10.55;52.24;101460.59;5066695;28;20080;-76
2022/11/14 00:23:22;;;;;;;10.80;7.40;;;;;;;10.50;52.34;101471.63;5070321;28;20525;-76
2022/11/14 00:26:11;;;;;;;8.32;7.30;;;;;;;10.49;52.34;101479.75;5070494;28;20426;-75
2022/11/14 00:28:56;;;;;;;10.32;8.10;;;;;;;10.46;52.52;101467.38;5056264;28;20059;-76
2022/11/14 00:31:42;;;;;;;9.00;7.80;;;;;;;10.45;52.36;101465.66;5074043;28;20182;-76
2022/11/14 00:34:27;;;;;;;9.95;7.78;;;;;;;10.44;52.61;101463.94;5074103;28;20056;-75
2022/11/14 00:37:13;;;;;;;9.13;7.28;;;;;;;10.43;52.53;101448.78;5073974;28;20055;-75
2022/11/14 00:39:58;;;;;;;;;;;;;;;10.40;52.54;101446.28;5063588;28;20048;-75
2022/11/14 00:42:43;;;;;;;10.02;7.68;;;;;;;10.41;52.17;101442.63;5053869;28;20286;-75
2022/11/14 00:45:29;;;;;;;9.63;7.00;;;;;;;10.35;52.35;101429.56;5054201;28;20047;-76
2022/11/14 00:48:15;;;;;;;8.05;6.72;;;;;;;10.32;52.42;101434.25;5054061;28;20091;-75
2022/11/14 00:51:00;;;;;;;8.70;7.07;;;;;;;10.28;52.36;101428.19;5072266;28;20067;-75
2022/11/14 00:53:45;;;;;;;9.10;7.22;;;;;;;10.26;52.48;101431.94;5074059;28;20059;-74
2022/11/14 00:56:30;;;;;;;10.00;8.13;;;;;;;10.24;52.63;101434.72;5073564;28;20402;-75
2022/11/14 00:59:16;;;;;;;9.75;7.10;;;;;;;10.23;52.54;101432.13;5069383;28;20580;-76
2022/11/14 01:02:01;;;;;;;7.85;7.05;;;;;;;10.20;52.52;101425.13;5038313;28;20430;-76
2022/11/14 01:04:49;;;;;;;8.90;8.00;;;;;;;10.18;52.71;101427.00;5054119;28;20560;-76
2022/11/14 01:07:34;;;;;;;10.43;7.25;;;;;;;10.16;52.61;101431.59;5053612;28;20052;-76
2022/11/14 01:10:20;;;;;;;8.70;7.10;;;;;;;10.10;52.63;101432.81;5065825;28;20071;-76
2022/11/14 01:13:05;;;;;;;;;;;;;;;10.03;52.69;101422.53;5073390;28;20051;-75
2022/11/14 01:15:58;;;;;;;9.43;7.20;;;;;;;10.00;52.67;101430.78;5073236;28;20031;-77
2022/11/14 01:18:43;;;;;;;10.38;7.90;;;;;;;9.94;52.73;101426.63;5053921;28;20056;-77
2022/11/14 01:21:28;;;;;;;10.20;7.85;;;;;;;9.88;52.64;101416.28;5053103;28;20052;-76
2022/11/14 01:24:13;;;;;;;8.90;7.43;;;;;;;9.83;52.60;101410.31;5053106;28;20048;-76
2022/11/14 01:27:07;;;;;;;9.55;7.68;;;;;;;9.77;52.87;101403.50;5073153;28;20508;-77
2022/11/14 01:29:52;;;;;;;8.48;7.57;;;;;;;9.75;52.83;101407.22;5073240;28;20048;-76
2022/11/14 01:32:37;;;;;;;8.93;8.03;;;;;;;9.71;52.70;101403.00;5073147;28;20102;-76
2022/11/14 01:35:23;;;;;;;10.85;7.95;;;;;;;9.67;52.98;101396.94;5067973;28;20126;-73
2022/11/14 01:38:12;;;;;;;9.55;8.18;;;;;;;9.64;53.08;101396.22;5038193;28;20048;-73
2022/11/14 01:40:57;;;;;;;10.75;8.35;;;;;;;9.61;53.21;101393.72;5037695;28;20060;-74
2022/11/14 01:43:43;;;;;;;10.40;8.32;;;;;;;9.58;52.83;101386.72;5037948;28;20067;-74
2022/11/14 01:46:36;;;;;;;11.15;8.40;;;;;;;9.56;53.13;101383.25;5066188;28;20048;-74
2022/11/14 01:49:25;;;;;;;10.90;8.98;;;;;;;9.56;53.37;101381.44;5071834;28;20102;-73
2022/11/14 01:52:17;;;;;;;10.90;8.80;;;;;;;9.54;53.38;101375.31;5072501;28;20056;-73
2022/11/14 01:55:09;;;;;;;12.13;9.10;;;;;;;9.54;53.43;101371.75;5070695;28;20047;-73
2022/11/14 01:57:56;;;;;;;14.23;8.98;;;;;;;9.54;53.51;101364.59;5052618;28;20055;-73
2022/11/14 02:00:42;;;;;;;12.73;9.65;;;;;;;9.52;53.64;101358.44;5052651;28;20130;-73
2022/11/14 02:03:27;;;;;;;11.93;9.23;;;;;;;9.52;53.85;101357.59;5052523;28;20059;-73
2022/11/14 02:06:21;;;;;;;12.45;9.52;;;;;;;9.52;53.71;101353.09;5048295;28;20534;-74
2022/11/14 02:09:06;;;;;;;12.68;9.43;;;;;;;9.52;53.31;101349.53;5072183;28;20059;-74
2022/11/14 02:11:53;;;;;;;13.55;10.05;;;;;;;9.49;53.83;101352.41;5071865;28;20055;-74
2022/11/14 02:14:44;;;;;;;13.77;9.93;;;;;;;9.47;53.95;101349.81;5072252;28;20048;-74
2022/11/14 02:17:29;;;;;;;13.23;9.52;;;;;;;9.47;53.71;101349.81;5072045;28;20411;-74
2022/11/14 02:20:27;;;;;;;12.40;10.63;;;;;;;9.46;53.82;101336.50;5072270;28;20055;-74
2022/11/14 02:23:12;;;;;;;14.35;10.02;;;;;;;9.47;53.90;101330.19;5066836;28;20072;-74
2022/11/14 02:25:58;;;;;;;13.88;10.75;;;;;;;9.47;53.98;101324.81;5039169;28;20051;-74
2022/11/14 02:28:43;;;;;;;13.80;10.15;;;;;;;9.46;53.90;101323.94;5052175;28;20522;-74
2022/11/14 02:31:29;;;;;;;14.00;10.05;;;;;;;9.44;53.77;101322.31;5037131;28;20402;-75
2022/11/14 02:34:18;;;;;;;16.40;10.38;;;;;;;9.39;53.74;101313.69;5051386;28;20056;-75
2022/11/14 02:37:18;;;;;;;15.40;10.65;;;;;;;9.36;53.76;101305.81;5071927;28;20071;-75
2022/11/14 02:40:03;;;;;;;13.20;10.57;;;;;;;9.34;53.88;101310.41;5071862;28;20509;-74
2022/11/14 02:42:48;;;;;;;13.75;10.68;;;;;;;9.29;53.92;101301.78;5054619;28;20056;-75
2022/11/14 02:45:37;;;;;;;15.33;11.43;;;;;;;9.26;53.84;101296.59;5036600;28;20063;-75
2022/11/14 02:48:23;;;;;;;15.45;10.57;;;;;;;9.21;53.83;101300.41;5036880;28;20657;-75
2022/11/14 02:51:08;;;;;;;15.60;11.00;;;;;;;9.17;53.98;101292.63;5050845;28;20525;-74
2022/11/14 02:53:53;;;;;;;14.50;10.75;;;;;;;9.13;54.08;101293.75;5061648;28;20445;-74
2022/11/14 02:56:38;;;;;;;16.45;11.80;;;;;;;9.11;54.32;101295.66;5071413;28;20058;-73
2022/11/14 02:59:23;;;;;;;17.23;11.90;;;;;;;9.12;54.23;101297.38;5071289;28;20059;-74
2022/11/14 03:02:08;;;;;;;17.52;12.10;;;;;;;9.12;54.28;101300.06;5056244;28;20056;-74
2022/11/14 03:04:53;;;;;;;16.27;12.23;;;;;;;9.11;54.41;101307.25;5051569;28;20052;-74
2022/11/14 03:07:39;;;;;;;16.98;12.23;;;;;;;9.13;54.50;101301.81;5051165;28;20044;-75
2022/11/14 03:10:24;;;;;;;16.02;11.70;;;;;;;9.16;54.55;101310.53;5051423;28;20063;-74
2022/11/14 03:13:09;;;;;;;17.85;12.85;;;;;;;9.16;54.32;101299.81;5051539;28;20406;-74
2022/11/14 03:15:55;;;;;;;20.10;12.82;;;;;;;9.16;54.46;101293.59;5051114;28;20059;-74
2022/11/14 03:18:40;;;;;;;19.45;12.88;;;;;;;9.14;54.44;101293.66;5052606;28;20059;-73
2022/11/14 03:21:25;;;;;;;18.40;12.40;;;;;;;9.13;54.35;101294.63;5069668;28;20119;-74
2022/11/14 03:24:11;;;;;;;18.77;13.77;;;;;;;9.11;54.37;101293.84;5070420;28;20122;-74
2022/11/14 03:26:56;;;;;;;18.60;14.00;;;;;;;9.10;54.28;101291.25;5070986;28;20056;-75
2022/11/14 03:29:41;;;;;;;16.97;12.60;;;;;;;9.08;54.29;101295.84;5056028;28;20071;-75
2022/11/14 03:32:26;;;;;;;21.70;14.30;;;;;;;9.06;54.18;101300.44;5068372;28;20083;-75
2022/11/14 03:35:14;;;;;;;18.40;12.88;;;;;;;9.04;54.23;101299.66;5035920;28;20472;-74
2022/11/14 03:37:59;;;;;;;18.58;12.82;;;;;;;9.02;54.37;101298.88;5051071;28;20102;-72
2022/11/14 03:40:44;;;;;;;17.95;13.95;;;;;;;8.97;54.07;101293.78;5050849;28;20183;-72
2022/11/14 03:43:32;;;;;;;19.17;13.43;;;;;;;8.91;54.11;101286.06;5063995;28;20090;-74
2022/11/14 03:46:21;;;;;;;17.95;13.43;;;;;;;8.85;54.40;101287.28;5071070;28;20145;-73
2022/11/14 03:49:06;;;;;;;19.00;12.80;;;;;;;8.81;54.48;101292.91;5070524;28;20063;-74
2022/11/14 03:51:51;;;;;;;19.73;13.67;;;;;;;8.76;54.47;101292.28;5070692;28;20052;-74
2022/11/14 03:54:37;;;;;;;19.85;13.48;;;;;;;8.74;54.56;101295.06;5036020;28;20294;-75
2022/11/14 03:57:22;;;;;;;19.17;14.27;;;;;;;8.70;54.35;101290.81;5049944;28;20064;-76
2022/11/14 04:00:08;;;;;;;21.23;14.15;;;;;;;8.67;54.59;101288.31;5050898;28;20052;-75
2022/11/14 04:02:56;;;;;;;;;;;;;;;8.65;54.62;101278.66;5061763;28;20410;-75
2022/11/14 04:05:44;;;;;;;18.60;14.05;;;;;;;8.67;54.39;101269.56;5074800;28;19943;-75
2022/11/14 04:08:30;;;;;;;20.70;14.20;;;;;;;8.65;54.53;101262.59;5074845;28;20047;-75
2022/11/14 04:11:15;;;;;;;20.00;14.20;;;;;;;8.63;54.38;101262.66;5074355;28;20043;-75
2022/11/14 04:14:00;;;;;;;23.45;14.45;;;;;;;8.63;54.56;101267.16;5073701;28;20406;-74
2022/11/14 04:16:46;;;;;;;21.77;15.45;;;;;;;8.60;54.53;101265.53;5074340;28;20052;-75
2022/11/14 04:19:31;;;;;;;;;;;;;;;8.57;54.46;101257.66;5059954;28;20512;-73
2022/11/14 04:22:16;;;;;;;20.38;15.07;;;;;;;8.58;54.38;101256.72;5069248;28;19931;-73
2022/11/14 04:25:07;;;;;;;20.92;14.93;;;;;;;8.55;54.56;101256.88;5054586;28;20095;-73
2022/11/14 04:27:52;;;;;;;25.73;16.02;;;;;;;8.52;54.59;101255.25;5054443;28;20094;-73
2022/11/14 04:30:38;;;;;;;25.33;15.52;;;;;;;8.51;54.59;101258.88;5058625;28;20410;-73
2022/11/14 04:33:23;;;;;;;23.80;15.85;;;;;;;8.50;54.53;101259.81;5074230;28;20059;-73
2022/11/14 04:36:12;;;;;;;23.08;16.98;;;;;;;8.48;54.66;101258.19;5073999;28;20201;-74
2022/11/14 04:38:58;;;;;;;27.60;17.15;;;;;;;8.46;54.70;101257.41;5073961;28;20425;-75
2022/11/14 04:41:43;;;;;;;22.63;15.98;;;;;;;8.43;54.97;101260.25;5060275;28;20055;-74
2022/11/14 04:44:32;;;;;;;22.95;16.15;;;;;;;8.41;54.80;101263.00;5039304;28;20087;-75
2022/11/14 04:47:17;;;;;;;22.92;15.88;;;;;;;8.40;54.75;101260.41;5038870;28;20162;-74
2022/11/14 04:50:03;;;;;;;26.38;16.40;;;;;;;8.38;54.64;101251.59;5054101;28;20506;-74
2022/11/14 04:52:52;;;;;;;22.92;16.70;;;;;;;8.37;54.75;101252.56;5053987;28;20075;-74
2022/11/14 04:55:38;;;;;;;24.33;15.98;;;;;;;8.35;54.97;101252.63;5053862;28;20526;-74
2022/11/14 04:58:24;;;;;;;24.17;16.42;;;;;;;8.32;54.95;101249.25;5054024;28;20075;-73
2022/11/14 05:01:10;;;;;;;21.33;15.35;;;;;;;8.29;54.92;101243.09;5033718;28;20057;-73
2022/11/14 05:03:55;;;;;;;22.13;16.08;;;;;;;8.28;55.06;101241.38;5033876;28;20075;-73
2022/11/14 05:06:40;;;;;;;24.40;16.47;;;;;;;8.28;55.00;101243.19;5033736;28;20069;-74
2022/11/14 05:09:25;;;;;;;23.65;15.48;;;;;;;8.27;55.02;101233.44;5033730;28;20072;-74
2022/11/14 05:12:10;;;;;;;23.63;15.90;;;;;;;8.26;54.86;101221.88;5049035;28;20157;-74
2022/11/14 05:14:58;;;;;;;23.57;17.20;;;;;;;8.25;55.11;101233.53;5053378;28;20477;-73
2022/11/14 05:17:43;;;;;;;23.17;15.75;;;;;;;8.22;54.93;101220.31;5053602;28;20114;-74
2022/11/14 05:20:28;;;;;;;23.23;16.00;;;;;;;8.20;55.02;101226.69;5050836;28;20044;-74
2022/11/14 05:23:22;;;;;;;21.88;14.93;;;;;;;8.17;54.94;101227.69;5033421;28;20052;-74
2022/11/14 05:26:13;;;;;;;25.10;16.40;;;;;;;8.16;54.86;101225.09;5018300;28;20110;-73
2022/11/14 05:28:58;;;;;;;23.92;16.00;;;;;;;8.13;54.97;101228.81;5018290;28;20044;-73
2022/11/14 05:31:44;;;;;;;23.00;15.57;;;;;;;8.09;55.01;101218.38;5017799;28;20439;-74
2022/11/14 05:34:30;;;;;;;25.17;16.60;;;;;;;8.06;55.12;101221.22;5033414;28;20051;-73
2022/11/14 05:37:15;;;;;;;25.20;16.73;;;;;;;8.04;55.07;101221.28;5020652;28;20064;-73
2022/11/14 05:40:00;;;;;;;25.40;16.25;;;;;;;8.04;55.33;101223.97;5053218;28;20519;-74
2022/11/14 05:42:45;;;;;;;24.00;15.93;;;;;;;8.04;55.19;101210.59;5052831;28;20047;-74
2022/11/14 05:45:30;;;;;;;24.10;16.37;;;;;;;8.03;55.14;101208.00;5052672;28;20130;-75
2022/11/14 05:48:15;;;;;;;22.23;15.47;;;;;;;8.01;55.04;101194.72;5041847;28;20138;-75
2022/11/14 05:51:02;;;;;;;22.70;15.55;;;;;;;8.01;55.26;101191.19;5032729;28;20160;-75
2022/11/14 05:53:48;;;;;;;22.88;15.52;;;;;;;7.96;55.24;101184.28;5032760;28;20048;-73
2022/11/14 05:56:35;;;;;;;25.30;16.15;;;;;;;7.94;55.29;101185.31;5033818;28;20056;-74
2022/11/14 05:59:20;;;;;;;23.33;15.57;;;;;;;7.93;55.22;101189.78;5060290;28;20651;-74
2022/11/14 06:02:05;;;;;;;23.20;15.18;;;;;;;7.91;55.22;101193.50;5072506;28;20201;-75
2022/11/14 06:04:54;;;;;;;22.13;15.18;;;;;;;7.91;55.44;101188.13;5072916;28;20090;-75
2022/11/14 06:07:39;;;;;;;20.27;14.85;;;;;;;7.91;55.29;101196.16;5064099;28;20072;-74
2022/11/14 06:10:25;;;;;;;20.35;14.25;;;;;;;7.88;55.44;101188.31;5051718;28;20712;-75
2022/11/14 06:13:10;;;;;;;25.00;15.40;;;;;;;7.88;55.22;101188.31;5051979;28;20056;-74
2022/11/14 06:16:07;;;;;;;22.08;15.55;;;;;;;7.89;55.27;101187.38;5052197;28;20055;-73
2022/11/14 06:18:52;;;;;;;20.77;14.43;;;;;;;7.87;55.29;101182.09;5069925;28;20051;-74
2022/11/14 06:21:38;;;;;;;20.58;14.65;;;;;;;7.88;55.29;101193.66;5072121;28;20098;-74
2022/11/14 06:24:24;;;;;;;21.30;14.52;;;;;;;7.85;55.37;101194.69;5072395;28;20055;-74
2022/11/14 06:27:08;;;;;;;21.33;13.18;;;;;;;7.83;55.31;101195.72;5069437;28;20112;-73
2022/11/14 06:29:53;;;;;;;20.50;14.40;;;;;;;7.82;55.34;101202.00;5072260;28;20074;-73
2022/11/14 06:32:38;;;;;;;21.83;14.20;;;;;;;7.79;55.36;101205.72;5071884;28;20174;-73
2022/11/14 06:35:24;;;;;;;18.88;13.13;;;;;;;7.79;55.48;101200.38;5072007;28;20072;-73
2022/11/14 06:38:09;;;;;;;21.02;14.00;;;;;;;7.80;55.28;101206.56;5059973;28;20052;-73
2022/11/14 06:41:15;;;;;;;20.63;13.50;;;;;;;7.76;55.29;101202.34;5052101;28;20056;-74
2022/11/14 06:44:00;;;;;;;19.35;12.80;;;;;;;7.75;55.58;101203.28;5037091;28;20056;-75
2022/11/14 06:46:46;;;;;;;21.20;14.10;;;;;;;7.71;55.22;101199.06;5064972;28;20051;-74
2022/11/14 06:49:30;;;;;;;19.45;13.23;;;;;;;7.69;55.37;101199.13;5071822;28;20154;-73
2022/11/14 06:52:21;;;;;;;20.88;14.00;;;;;;;7.66;55.48;101196.63;5071655;28;20055;-74
2022/11/14 06:55:11;;;;;;;23.00;13.43;;;;;;;7.62;55.72;101201.28;5071356;28;20059;-74
2022/11/14 06:57:56;;;;;;;19.40;13.95;;;;;;;7.58;55.47;101190.81;5051705;28;20060;-75
2022/11/14 07:00:41;;;;;;;18.57;13.30;;;;;;;7.57;55.47;101207.81;5044548;28;20077;-73
2022/11/14 07:03:26;;;;;;;19.58;13.60;;;;;;;7.55;55.45;101207.88;5031811;28;20217;-73
2022/11/14 07:06:21;;;;;;;20.15;13.70;;;;;;;7.54;55.61;101211.50;5031044;28;20511;-74
2022/11/14 07:09:09;;;;;;;20.13;13.93;;;;;;;7.53;55.57;101206.25;5031384;28;20573;-74
2022/11/14 07:11:54;;;;;;;18.55;13.25;;;;;;;7.52;55.58;101213.41;5031391;28;20176;-73
2022/11/14 07:14:40;;;;;;;19.35;13.43;;;;;;;7.52;55.66;101215.19;5031805;28;20059;-73
2022/11/14 07:17:25;;;;;;;19.63;13.68;;;;;;;7.53;55.60;101214.25;5030439;28;20522;-74
2022/11/14 07:20:17;;;;;;;20.10;13.30;;;;;;;7.55;55.81;101215.91;5032228;28;20056;-73
2022/11/14 07:23:02;;;;;;;20.60;13.57;;;;;;;7.59;55.65;101214.78;5039274;28;20045;-73
2022/11/14 07:25:48;;;;;;;21.02;13.57;;;;;;;7.58;55.67;101212.22;5052025;28;20060;-73
2022/11/14 07:28:34;;;;;;;22.90;13.02;;;;;;;7.58;55.77;101217.56;5051267;28;20505;-73
2022/11/14 07:31:20;;;;;;;21.25;13.93;;;;;;;7.58;55.76;101207.72;5046260;28;20501;-75
2022/11/14 07:34:05;;;;;;;20.55;13.15;;;;;;;7.60;55.94;101203.16;5049520;28;20195;-73
2022/11/14 07:36:50;;;;;;;23.02;14.55;;;;;;;7.63;55.92;101205.69;5051151;28;20056;-69
2022/11/14 07:39:35;;;;;;;18.13;12.93;;;;;;;7.67;56.08;101205.50;5055262;28;20413;-71
2022/11/14 07:42:20;;;;;;;22.40;14.77;;;;;;;7.74;55.99;101204.22;5052871;28;20064;-72
2022/11/14 07:45:09;;;;;;;20.88;14.07;;;;;;;7.84;56.16;101197.44;5052040;28;20075;-72
2022/11/14 07:47:56;;;;;;;23.25;14.45;;;;;;;7.97;56.03;101203.84;5051844;28;20063;-73
2022/11/14 07:50:41;;;;;;;21.70;14.65;;;;;;;8.11;56.40;101198.59;5054858;28;20137;-72
2022/11/14 07:53:27;;;;;;;16.75;12.55;;;;;;;8.23;56.30;101195.28;5055038;28;20064;-72
2022/11/14 07:56:16;;;;;;;;;;;;;;;8.31;56.13;101185.97;5046977;28;20059;-72
2022/11/14 07:59:01;;;;;;;17.50;12.27;;;;;;;8.41;55.94;101182.72;5039949;28;19928;-73
2022/11/14 08:01:46;;;;;;;18.65;12.77;;;;;;;8.47;56.04;101189.53;5054151;28;20862;-72
2022/11/14 08:04:32;;;;;;;17.00;12.55;;;;;;;8.51;55.93;101191.94;5072096;28;20060;-72
2022/11/14 08:07:16;;;;;;;16.95;12.70;;;;;;;8.55;56.08;101190.81;5067301;28;20070;-71
2022/11/14 08:10:02;;;;;;;19.87;12.93;;;;;;;8.58;56.07;101185.28;5074658;28;20134;-73
2022/11/14 08:12:56;;;;;;;;;;;;;;;8.60;55.98;101179.84;5075076;28;20134;-72
2022/11/14 08:16:05;;;;;;;16.83;11.70;;;;;;;8.67;55.67;101177.69;5061326;28;20070;-73
2022/11/14 08:18:57;;;;;;;16.70;11.93;;;;;;;8.69;55.81;101175.78;5056057;28;20056;-73
2022/11/14 08:21:43;;;;;;;17.95;12.00;;;;;;;8.73;56.02;101166.63;5067718;28;20563;-70
2022/11/14 08:24:33;;;;;;;17.20;11.50;;;;;;;8.79;56.08;101163.56;5074832;28;20055;-70
2022/11/14 08:27:17;;;;;;;15.88;10.90;;;;;;;8.87;56.41;101166.66;5074127;28;20047;-70
2022/11/14 08:30:03;;;;;;;17.48;11.98;;;;;;;8.94;56.22;101165.38;5074211;28;20051;-70
2022/11/14 08:32:49;;;;;;;17.83;11.68;;;;;;;9.04;56.29;101166.56;5073655;28;20417;-70
2022/11/14 08:35:38;;;;;;;16.40;11.88;;;;;;;9.17;56.39;101174.72;5073987;28;20051;-71
2022/11/14 08:38:23;;;;;;;14.02;10.30;;;;;;;9.30;56.52;101165.00;5073229;28;20516;-70
2022/11/14 08:41:08;;;;;;;14.27;9.48;;;;;;;9.46;56.48;101168.47;5073286;28;20063;-71
2022/11/14 08:43:53;;;;;;;15.15;10.82;;;;;;;9.66;56.79;101166.38;5073139;28;20055;-70
2022/11/14 08:46:38;;;;;;;14.40;9.57;;;;;;;9.86;56.64;101171.38;5072834;28;20099;-70
2022/11/14 08:49:23;;;;;;;14.25;8.73;;;;;;;10.07;56.75;101174.53;5072500;28;20049;-70
2022/11/14 08:52:09;;;;;;;12.75;9.35;;;;;;;10.28;56.79;101162.44;5073058;28;20055;-70
2022/11/14 08:55:00;;;;;;;13.98;9.43;;;;;;;10.50;56.78;101160.09;5073284;28;20051;-74
2022/11/14 08:57:46;;;;;;;14.73;9.30;;;;;;;10.70;56.87;101147.19;5068399;28;20513;-72
2022/11/14 09:00:33;;;;;;;11.20;8.50;;;;;;;10.89;56.27;101150.34;5053623;28;20414;-72
2022/11/14 09:03:19;;;;;;;11.18;8.63;;;;;;;11.07;56.34;101140.16;5053374;28;20063;-72
2022/11/14 09:06:04;;;;;;;11.45;8.57;;;;;;;11.23;56.14;101137.31;5053340;28;20056;-73
2022/11/14 09:08:51;;;;;;;13.77;9.13;;;;;;;11.36;56.08;101130.13;5055440;28;20560;-72
2022/11/14 09:11:36;;;;;;;12.32;8.85;;;;;;;11.50;55.95;101131.84;5073043;28;20568;-73
2022/11/14 09:14:26;;;;;;;11.27;8.88;;;;;;;11.66;55.95;101129.78;5073236;28;20047;-74
2022/11/14 09:17:11;;;;;;;14.07;9.32;;;;;;;11.86;55.93;101139.16;5073034;28;20059;-73
2022/11/14 09:19:56;;;;;;;11.00;9.07;;;;;;;12.01;55.28;101125.50;5072698;28;20122;-72
2022/11/14 09:22:41;;;;;;;14.20;8.07;;;;;;;12.16;55.29;101122.66;5072475;28;20059;-73
2022/11/14 09:25:31;;;;;;;12.27;9.60;;;;;;;12.29;55.23;101124.31;5068360;28;20040;-73
2022/11/14 09:28:16;;;;;;;13.98;10.10;;;;;;;12.42;55.12;101124.28;5049908;28;20056;-70
2022/11/14 09:31:05;;;;;;;12.95;9.60;;;;;;;12.52;55.07;101122.63;5038915;28;20060;-71
2022/11/14 09:33:50;;;;;;;14.82;9.98;;;;;;;12.59;54.71;101123.88;5058322;28;20098;-73
2022/11/14 09:36:36;;;;;;;14.10;9.98;;;;;;;12.71;54.76;101122.13;5072091;28;20563;-73
2022/11/14 09:39:21;;;;;;;13.73;10.43;;;;;;;12.80;54.48;101120.56;5072863;28;20055;-74
2022/11/14 09:42:15;;;;;;;12.35;9.85;;;;;;;12.91;54.26;101126.00;5072656;28;20149;-72
2022/11/14 09:45:05;;;;;;;14.73;10.02;;;;;;;13.02;54.15;101117.94;5057764;28;20051;-72
2022/11/14 09:48:02;;;;;;;13.23;9.82;;;;;;;13.12;54.16;101116.25;5070572;28;20163;-73
2022/11/14 09:50:57;;;;;;;14.38;10.77;;;;;;;13.20;53.83;101118.38;5060959;28;20148;-72
2022/11/14 09:53:51;;;;;;;13.93;10.60;;;;;;;13.30;53.79;101122.94;5052934;28;20179;-73
2022/11/14 09:56:35;;;;;;;13.93;10.50;;;;;;;13.38;53.69;101116.97;5052289;28;20431;-73
2022/11/14 09:59:21;;;;;;;18.80;12.15;;;;;;;13.45;53.81;101117.34;5053208;28;20406;-72
2022/11/14 10:02:21;;;;;;;17.17;11.90;;;;;;;13.53;53.39;101120.31;5052178;28;20471;-72
2022/11/14 10:05:48;;;;;;;16.48;11.90;;;;;;;13.64;53.22;101117.63;5069592;28;20055;-73
2022/11/14 10:08:33;;;;;;;17.90;12.52;;;;;;;13.75;53.21;101108.66;5070056;28;20059;-73
2022/11/14 10:11:28;;;;;;;16.50;11.88;;;;;;;13.83;53.07;101104.38;5072148;28;20171;-73
2022/11/14 10:14:31;;;;;;;20.20;13.98;;;;;;;13.95;53.33;101107.91;5062203;28;20052;-72
2022/11/14 10:17:43;;;;;;;16.90;12.73;;;;;;;14.08;52.80;101108.63;5072818;28;20152;-73
2022/11/14 10:20:33;;;;;;;18.00;13.82;;;;;;;14.15;53.03;101101.78;5070351;28;20052;-72
2022/11/14 10:23:37;;;;;;;19.50;14.45;;;;;;;14.25;52.84;101099.16;5056916;28;20086;-73
2022/11/14 10:26:30;;;;;;;22.38;13.82;;;;;;;14.35;52.64;101104.69;5072668;28;20055;-72
2022/11/14 10:29:19;;;;;;;18.02;14.25;;;;;;;14.41;52.78;101098.75;5057028;28;20186;-72
2022/11/14 10:32:15;;;;;;;19.63;14.73;;;;;;;14.45;52.49;101102.97;5069234;28;20055;-74
2022/11/14 10:35:13;;;;;;;21.52;14.95;;;;;;;14.48;52.26;101092.75;5071413;28;20130;-74
2022/11/14 10:38:04;;;;;;;19.85;14.02;;;;;;;14.50;52.19;101090.78;5071454;28;20067;-73
2022/11/14 10:40:53;;;;;;;19.60;14.77;;;;;;;14.54;52.19;101096.78;5071405;28;20055;-74
2022/11/14 10:43:45;;;;;;;20.42;15.70;;;;;;;14.51;51.86;101105.16;5056429;28;20055;-74
2022/11/14 10:46:54;;;;;;;21.80;15.40;;;;;;;14.44;52.16;101095.84;5055153;28;20040;-73
2022/11/14 10:49:39;;;;;;;20.98;16.20;;;;;;;14.41;51.91;101088.81;5058551;28;20063;-74
2022/11/14 10:52:34;;;;;;;;;;;;;;;14.30;51.57;101086.16;5071360;28;20517;-73
2022/11/14 10:55:23;;;;;;;24.90;19.13;;;;;;;14.25;51.87;101081.13;5071406;28;19927;-74
2022/11/14 10:58:28;;;;;;;28.63;20.20;;;;;;;14.17;51.90;101088.16;5070913;28;20062;-74
2022/11/14 11:01:36;;;;;;;;;;;;;;;14.05;52.08;101089.97;5071091;28;20098;-74
2022/11/14 11:04:35;;;;;;;32.70;23.15;;;;;;;13.94;51.75;101087.28;5070657;28;19927;-75
2022/11/14 11:13:41;;;;;;;32.15;23.10;;;;;;;13.61;51.90;101085.47;5068293;28;20052;-76
2022/11/14 11:16:28;;;;;;;35.78;26.02;;;;;;;13.57;52.36;101079.47;5035730;28;20123;-77
2022/11/14 11:19:25;;;;;;;34.85;25.23;;;;;;;13.45;52.06;101074.19;5050173;28;20399;-77
2022/11/14 11:22:22;;;;;;;36.13;25.85;;;;;;;13.30;52.42;101070.84;5050948;28;20521;-76
2022/11/14 11:25:34;;;;;;;37.88;26.48;;;;;;;13.16;52.23;101066.50;5053720;28;20048;-76
2022/11/14 11:28:21;;;;;;;35.10;25.08;;;;;;;13.09;52.62;101067.94;5050781;28;20048;-76
2022/11/14 11:31:08;;;;;;;40.85;27.83;;;;;;;13.03;52.51;101058.50;5050619;28;20537;-76
2022/11/14 11:33:54;;;;;;;42.80;27.50;;;;;;;12.97;52.67;101056.28;5051987;28;20403;-76
2022/11/14 11:36:41;;;;;;;;;;;;;;;12.89;52.64;101060.56;5050917;28;20056;-76
2022/11/14 11:39:34;;;;;;;39.47;25.33;;;;;;;12.85;52.97;101053.69;5050960;28;19951;-76
2022/11/14 11:42:26;;;;;;;40.50;25.50;;;;;;;12.78;52.95;101052.44;5050685;28;20055;-77
2022/11/14 11:45:33;;;;;;;37.03;24.25;;;;;;;12.70;52.82;101053.88;5049175;28;20052;-75
2022/11/14 11:48:21;;;;;;;34.15;23.92;;;;;;;12.71;53.03;101052.91;5050691;28;20048;-75
2022/11/14 11:51:19;;;;;;;34.50;22.33;;;;;;;12.70;53.48;101055.72;5051238;28;20048;-74
2022/11/14 11:54:43;;;;;;;37.10;22.60;;;;;;;12.70;53.18;101055.72;5058051;28;20414;-73
2022/11/14 11:57:41;;;;;;;34.15;22.23;;;;;;;12.68;53.50;101061.22;5009577;28;20067;-74
2022/11/14 12:00:26;;;;;;;35.17;22.55;;;;;;;12.66;53.59;101055.09;5049644;28;20130;-75
2022/11/14 12:03:14;;;;;;;34.35;22.35;;;;;;;12.62;53.35;101056.28;5048992;28;20056;-72
2022/11/14 12:06:24;;;;;;;34.72;23.45;;;;;;;12.58;53.78;101062.03;5030769;28;20044;-74
2022/11/14 12:09:22;;;;;;;33.95;22.60;;;;;;;12.53;53.68;101054.28;5030675;28;20067;-74
2022/11/14 12:12:34;;;;;;;36.28;22.30;;;;;;;12.52;53.69;101055.25;5030543;28;20064;-74
2022/11/14 12:15:52;;;;;;;33.38;22.10;;;;;;;12.53;53.91;101053.44;5031920;28;20057;-74
2022/11/14 12:18:43;;;;;;;31.88;20.90;;;;;;;12.53;53.79;101051.59;5031775;28;20061;-74
2022/11/14 12:21:47;;;;;;;35.42;21.15;;;;;;;12.51;53.89;101040.06;5030513;28;20060;-74
2022/11/14 12:24:51;;;;;;;33.97;20.67;;;;;;;12.53;53.66;101053.44;5032364;28;20064;-73
2022/11/14 12:27:50;;;;;;;33.33;20.40;;;;;;;12.53;53.93;101050.72;5034515;28;20060;-74
2022/11/14 12:30:38;;;;;;;33.70;20.80;;;;;;;12.54;54.00;101042.53;5051069;28;20407;-73
2022/11/14 12:33:28;;;;;;;32.80;20.13;;;;;;;12.55;53.88;101030.78;5053876;28;20067;-74
2022/11/14 12:36:15;;;;;;;33.13;20.35;;;;;;;12.55;53.90;101027.22;5054206;28;20052;-74
2022/11/14 12:39:01;;;;;;;29.55;20.08;;;;;;;12.53;54.09;101027.34;5051113;28;20142;-74
2022/11/14 12:41:46;;;;;;;30.55;20.60;;;;;;;12.54;53.88;101012.03;5048615;28;20099;-72
2022/11/14 12:44:36;;;;;;;34.15;20.10;;;;;;;12.54;53.91;101018.28;5046442;28;20550;-72
2022/11/14 12:47:23;;;;;;;31.80;19.85;;;;;;;12.53;54.13;101003.09;5053674;28;20056;-71
2022/11/14 12:50:38;;;;;;;30.75;19.75;;;;;;;12.54;54.30;100994.03;5053688;28;20183;-71
2022/11/14 12:53:34;;;;;;;31.40;21.00;;;;;;;12.58;54.32;101002.75;5053680;28;20059;-71
2022/11/14 12:56:32;;;;;;;31.08;19.33;;;;;;;12.61;54.28;100994.44;5053828;28;20052;-71
2022/11/14 12:59:29;;;;;;;31.95;19.88;;;;;;;12.62;54.27;100993.44;5060650;28;20051;-71
2022/11/14 13:02:43;;;;;;;31.85;19.60;;;;;;;12.66;54.33;100986.88;5071732;28;20059;-71
2022/11/14 13:05:37;;;;;;;29.52;19.48;;;;;;;12.69;54.11;100983.94;5054059;28;20175;-72